Time;durP1;ratioP1;P1;durP2;ratioP2;P2;SDS_P1;SDS_P2;PMS_P1;PMS_P2;Temp;Humidity;BMP_temperature;BMP_pressure;BME280_temperature;BME280_humidity;BME280_pressure;Samples;Min_cycle;Max_cycle;Signal;HPM_P1;HPM_P2
2021/08/18 00:01:19;;;;;;;7.43;2.67;;;17.40;99.90;;;;;;5114523;28;19910;-80
2021/08/18 00:03:45;;;;;;;;;;;17.20;99.90;;;;;;5114835;28;20023;-79
2021/08/18 00:06:11;;;;;;;5.60;2.28;;;17.00;99.90;;;;;;5114326;28;19908;-79
2021/08/18 00:08:40;;;;;;;5.35;1.98;;;17.00;99.90;;;;;;5096089;28;20023;-79
2021/08/18 00:11:06;;;;;;;6.10;2.22;;;17.00;99.90;;;;;;5114228;28;20016;-78
2021/08/18 00:13:31;;;;;;;;;;;16.80;99.90;;;;;;5114666;28;20076;-79
2021/08/18 00:15:57;;;;;;;6.22;2.03;;;16.90;99.90;;;;;;5095940;28;19904;-79
2021/08/18 00:18:23;;;;;;;;;;;16.80;99.90;;;;;;5114791;28;20011;-78
2021/08/18 00:20:49;;;;;;;6.63;2.25;;;16.80;99.90;;;;;;5114249;28;19903;-80
2021/08/18 00:23:15;;;;;;;;;;;16.90;99.90;;;;;;5114583;28;20031;-80
2021/08/18 00:25:41;;;;;;;6.88;2.30;;;16.80;99.90;;;;;;5114097;28;20386;-79
2021/08/18 00:28:07;;;;;;;5.97;2.10;;;16.60;99.90;;;;;;5114005;28;20020;-79
2021/08/18 00:30:32;;;;;;;;;;;16.60;99.90;;;;;;5114649;28;20031;-79
2021/08/18 00:32:58;;;;;;;7.72;2.10;;;16.50;99.90;;;;;;5114038;28;20287;-79
2021/08/18 00:35:24;;;;;;;;;;;16.40;99.90;;;;;;5114275;28;20081;-80
2021/08/18 00:37:50;;;;;;;7.20;2.50;;;16.50;99.90;;;;;;5113586;28;19904;-79
2021/08/18 00:40:15;;;;;;;;;;;16.50;99.90;;;;;;5114355;28;20084;-79
2021/08/18 00:42:45;;;;;;;6.22;2.10;;;16.60;99.90;;;;;;5113883;28;19904;-80
2021/08/18 00:45:12;;;;;;;5.30;2.08;;;16.70;99.90;;;;;;5113568;28;20035;-79
2021/08/18 00:47:48;;;;;;;5.35;2.15;;;16.70;99.90;;;;;;5113676;28;20043;-80
2021/08/18 00:50:19;;;;;;;6.38;1.90;;;16.90;99.90;;;;;;5114073;28;20501;-80
2021/08/18 00:52:46;;;;;;;8.93;2.30;;;16.80;99.90;;;;;;5113730;28;20027;-78
2021/08/18 00:55:14;;;;;;;8.52;2.72;;;16.70;99.90;;;;;;5113680;28;20090;-80
2021/08/18 00:57:41;;;;;;;7.18;2.53;;;16.90;99.90;;;;;;5113610;28;20065;-78
2021/08/18 01:00:09;;;;;;;5.75;2.00;;;17.00;99.90;;;;;;5113613;28;20399;-81
2021/08/18 01:02:36;;;;;;;7.95;2.10;;;17.20;99.90;;;;;;5113741;28;20020;-78
2021/08/18 01:05:30;;;;;;;6.93;2.20;;;17.20;99.90;;;;;;5113566;28;20536;-81
2021/08/18 01:07:58;;;;;;;7.70;2.80;;;17.40;99.90;;;;;;5090355;28;20046;-81
2021/08/18 01:10:27;;;;;;;6.18;2.20;;;17.10;99.90;;;;;;5095201;28;20068;-79
2021/08/18 01:12:54;;;;;;;5.60;2.30;;;17.10;99.90;;;;;;5113793;28;20411;-80
2021/08/18 01:15:23;;;;;;;7.05;2.45;;;16.90;99.90;;;;;;5113479;28;20020;-79
2021/08/18 01:17:54;;;;;;;6.85;2.25;;;17.00;99.90;;;;;;5113530;28;20020;-80
2021/08/18 01:20:32;;;;;;;6.50;2.45;;;17.20;99.90;;;;;;5113568;28;20019;-79
2021/08/18 01:23:03;;;;;;;4.97;2.05;;;17.00;99.90;;;;;;5113478;28;20020;-80
2021/08/18 01:25:30;;;;;;;8.10;2.17;;;17.10;99.90;;;;;;5113410;28;20032;-78
2021/08/18 01:27:59;;;;;;;8.70;2.42;;;17.20;99.90;;;;;;5113298;28;20212;-78
2021/08/18 01:30:27;;;;;;;7.85;2.65;;;16.80;99.90;;;;;;5113379;28;20031;-79
2021/08/18 01:32:57;;;;;;;9.80;2.60;;;16.60;99.90;;;;;;5113324;28;20023;-79
2021/08/18 01:35:28;;;;;;;7.13;2.13;;;16.50;99.90;;;;;;5113280;28;20064;-80
2021/08/18 01:37:54;;;;;;;8.52;2.47;;;16.80;99.90;;;;;;5113334;28;20073;-78
2021/08/18 01:40:21;;;;;;;10.68;3.45;;;17.00;99.90;;;;;;5113264;28;20023;-79
2021/08/18 01:42:48;;;;;;;10.48;2.50;;;16.80;99.90;;;;;;5094970;28;20061;-79
2021/08/18 01:45:24;;;;;;;7.90;2.55;;;17.00;99.90;;;;;;5113103;28;20016;-79
2021/08/18 01:47:51;;;;;;;11.95;2.90;;;16.90;99.90;;;;;;5113384;28;20399;-80
2021/08/18 01:50:17;;;;;;;7.40;2.40;;;16.90;99.90;;;;;;5115505;28;20544;-78
2021/08/18 01:52:43;;;;;;;11.73;2.78;;;16.80;99.90;;;;;;5116978;28;20020;-79
2021/08/18 01:55:09;;;;;;;;;;;16.90;99.90;;;;;;5117369;28;20444;-81
2021/08/18 01:57:36;;;;;;;6.32;2.28;;;17.00;99.90;;;;;;5116882;28;19907;-78
2021/08/18 02:00:04;;;;;;;8.52;2.72;;;17.10;99.90;;;;;;5116841;28;20472;-79
2021/08/18 02:02:30;;;;;;;8.20;2.40;;;17.00;99.90;;;;;;5116727;28;20065;-80
2021/08/18 02:04:56;;;;;;;9.52;2.67;;;17.00;99.90;;;;;;5116721;28;20076;-80
2021/08/18 02:07:23;;;;;;;7.78;2.70;;;16.80;99.90;;;;;;5116642;28;20475;-79
2021/08/18 02:09:49;;;;;;;7.00;2.28;;;17.00;99.90;;;;;;5116685;28;20019;-79
2021/08/18 02:12:14;;;;;;;;;;;16.70;99.90;;;;;;5117093;28;20099;-79
2021/08/18 02:14:41;;;;;;;9.45;2.60;;;16.60;99.90;;;;;;5116756;28;20047;-79
2021/08/18 02:17:07;;;;;;;8.60;2.55;;;16.70;99.90;;;;;;5098286;28;20026;-79
2021/08/18 02:19:33;;;;;;;;;;;16.60;99.90;;;;;;5098607;28;20024;-80
2021/08/18 02:21:58;;;;;;;8.32;2.80;;;16.50;99.90;;;;;;5116666;28;19960;-80
2021/08/18 02:24:24;;;;;;;;;;;16.70;99.90;;;;;;5098464;28;20024;-77
2021/08/18 02:26:50;;;;;;;7.53;2.80;;;16.80;99.90;;;;;;5116547;28;19911;-79
2021/08/18 02:29:15;;;;;;;;;;;16.60;99.90;;;;;;5116659;28;20035;-79
2021/08/18 02:31:41;;;;;;;9.10;2.72;;;16.30;99.90;;;;;;5116262;28;19911;-79
2021/08/18 02:34:09;;;;;;;;;;;16.40;99.90;;;;;;5116645;28;20024;-79
2021/08/18 02:36:35;;;;;;;11.40;2.90;;;16.60;99.90;;;;;;5097797;28;20398;-78
2021/08/18 02:39:01;;;;;;;9.73;2.60;;;16.40;99.90;;;;;;5116044;28;20019;-79
2021/08/18 02:41:27;;;;;;;10.30;2.60;;;16.50;99.90;;;;;;5116018;28;20024;-81
2021/08/18 02:43:53;;;;;;;;;;;16.30;99.90;;;;;;5098093;28;20050;-80
2021/08/18 02:46:18;;;;;;;11.95;3.10;;;16.30;99.90;;;;;;5097444;28;20014;-80
2021/08/18 02:48:44;;;;;;;;;;;16.20;99.90;;;;;;5116354;28;20023;-79
2021/08/18 02:51:10;;;;;;;9.85;2.78;;;16.30;99.90;;;;;;5115951;28;20364;-80
2021/08/18 02:53:35;;;;;;;;;;;16.50;99.90;;;;;;5116204;28;20024;-79
2021/08/18 02:56:01;;;;;;;10.32;2.60;;;16.20;99.90;;;;;;5097486;28;19904;-78
2021/08/18 02:58:27;;;;;;;;;;;16.20;99.90;;;;;;5116147;28;20023;-78
2021/08/18 03:00:53;;;;;;;10.30;3.13;;;16.40;99.90;;;;;;5115879;28;19953;-79
2021/08/18 03:03:18;;;;;;;;;;;16.40;99.90;;;;;;5116055;28;20043;-81
2021/08/18 03:05:44;;;;;;;13.95;3.50;;;16.40;99.90;;;;;;5115793;28;19947;-78
2021/08/18 03:08:10;;;;;;;;;;;16.20;99.90;;;;;;5115843;28;20438;-79
2021/08/18 03:10:35;;;;;;;11.23;3.28;;;16.50;99.90;;;;;;5115486;28;19904;-80
2021/08/18 03:13:01;;;;;;;;;;;16.60;99.90;;;;;;5115822;28;20106;-78
2021/08/18 03:15:26;;;;;;;9.40;2.83;;;16.60;99.90;;;;;;5115425;28;19904;-79
2021/08/18 03:17:52;;;;;;;;;;;16.80;99.90;;;;;;5115876;28;20403;-78
2021/08/18 03:20:18;;;;;;;9.77;3.22;;;16.90;99.90;;;;;;5115431;28;19910;-80
2021/08/18 03:22:44;;;;;;;;;;;16.90;99.90;;;;;;5115674;28;20511;-78
2021/08/18 03:25:10;;;;;;;8.07;2.55;;;16.90;99.90;;;;;;5115365;28;19907;-79
2021/08/18 03:27:36;;;;;;;9.00;2.40;;;16.80;99.90;;;;;;5115350;28;20111;-79
2021/08/18 03:30:06;;;;;;;10.82;3.10;;;16.90;99.90;;;;;;5115349;28;20132;-79
2021/08/18 03:32:32;;;;;;;8.90;3.17;;;17.00;99.90;;;;;;5115126;28;20106;-80
2021/08/18 03:34:58;;;;;;;;;;;17.00;99.90;;;;;;5115492;28;20373;-79
2021/08/18 03:37:24;;;;;;;11.50;3.05;;;17.00;99.90;;;;;;5115435;28;19911;-80
2021/08/18 03:39:49;;;;;;;;;;;17.00;99.90;;;;;;5115409;28;20103;-80
2021/08/18 03:42:15;;;;;;;9.23;3.13;;;17.20;99.90;;;;;;5115096;28;19910;-78
2021/08/18 03:44:41;;;;;;;;;;;17.00;99.90;;;;;;5115269;28;20086;-79
2021/08/18 03:47:06;;;;;;;8.40;2.72;;;17.10;99.90;;;;;;5114313;28;19969;-79
2021/08/18 03:49:32;;;;;;;;;;;17.00;99.90;;;;;;5096909;28;20391;-79
2021/08/18 03:51:58;;;;;;;9.95;3.00;;;17.10;99.90;;;;;;5114650;28;19903;-79
2021/08/18 03:54:23;;;;;;;;;;;17.10;99.90;;;;;;5115065;28;20016;-79
2021/08/18 03:56:49;;;;;;;10.32;2.60;;;17.00;99.90;;;;;;5114568;28;20287;-80
2021/08/18 03:59:15;;;;;;;;;;;17.10;99.90;;;;;;5114899;28;20468;-79
2021/08/18 04:01:41;;;;;;;10.75;3.25;;;16.60;99.90;;;;;;5114463;28;19904;-78
2021/08/18 04:04:06;;;;;;;;;;;16.20;99.90;;;;;;5115009;28;20035;-79
2021/08/18 04:06:32;;;;;;;8.98;2.95;;;16.30;99.90;;;;;;5114435;28;19908;-79
2021/08/18 04:08:58;;;;;;;12.73;3.33;;;16.20;99.90;;;;;;5114397;28;20024;-79
2021/08/18 04:11:25;;;;;;;14.57;3.50;;;15.80;99.90;;;;;;5114181;28;20100;-80
2021/08/18 04:13:51;;;;;;;12.32;3.60;;;15.80;99.90;;;;;;5113885;28;20476;-80
2021/08/18 04:16:16;;;;;;;;;;;15.90;99.90;;;;;;5114726;28;20098;-78
2021/08/18 04:18:44;;;;;;;9.13;3.13;;;16.00;99.90;;;;;;5114642;28;20317;-80
2021/08/18 04:21:10;;;;;;;10.52;3.00;;;16.10;99.90;;;;;;5114161;28;20027;-79
2021/08/18 04:23:36;;;;;;;9.55;2.80;;;16.50;99.90;;;;;;5114093;28;20468;-79
2021/08/18 04:26:02;;;;;;;;;;;16.70;99.90;;;;;;5096241;28;20034;-79
2021/08/18 04:28:27;;;;;;;10.00;3.22;;;16.60;99.90;;;;;;5114166;28;19910;-79
2021/08/18 04:30:53;;;;;;;;;;;16.50;99.90;;;;;;5114674;28;20106;-79
2021/08/18 04:33:19;;;;;;;8.32;3.38;;;16.30;99.90;;;;;;5114510;28;19942;-79
2021/08/18 04:35:45;;;;;;;;;;;16.30;99.90;;;;;;5096180;28;20035;-79
2021/08/18 04:38:10;;;;;;;6.95;2.72;;;16.20;99.90;;;;;;5113946;28;19974;-78
2021/08/18 04:40:36;;;;;;;;;;;16.30;99.90;;;;;;5114440;28;20012;-80
2021/08/18 04:43:02;;;;;;;11.98;3.20;;;16.50;99.90;;;;;;5114083;28;19911;-80
2021/08/18 04:45:28;;;;;;;;;;;16.60;99.90;;;;;;5114142;28;20407;-80
2021/08/18 04:47:53;;;;;;;10.20;2.58;;;16.40;99.90;;;;;;5113881;28;19918;-79
2021/08/18 04:50:19;;;;;;;;;;;16.70;99.90;;;;;;5114160;28;20123;-80
2021/08/18 04:52:45;;;;;;;9.00;2.83;;;16.90;99.90;;;;;;5114209;28;19907;-79
2021/08/18 04:55:13;;;;;;;10.27;2.75;;;16.70;99.90;;;;;;5113912;28;20472;-79
2021/08/18 04:57:39;;;;;;;11.30;3.05;;;16.40;99.90;;;;;;5113791;28;20499;-80
2021/08/18 05:00:05;;;;;;;;;;;16.40;99.90;;;;;;5114087;28;20067;-79
2021/08/18 05:02:34;;;;;;;8.88;2.95;;;16.20;99.90;;;;;;5113564;28;20293;-78
2021/08/18 05:05:01;;;;;;;9.88;2.70;;;16.50;99.90;;;;;;5113583;28;20024;-79
2021/08/18 05:07:27;;;;;;;10.77;3.05;;;16.70;99.90;;;;;;5113711;28;20077;-80
2021/08/18 05:10:11;;;;;;;16.40;3.30;;;16.70;99.90;;;;;;5113591;28;20488;-80
2021/08/18 05:12:38;;;;;;;7.73;3.23;;;16.60;99.90;;;;;;5095061;28;20024;-79
2021/08/18 05:15:05;;;;;;;11.95;3.50;;;16.80;99.90;;;;;;5113679;28;20161;-79
2021/08/18 05:17:30;;;;;;;9.57;3.05;;;17.00;99.90;;;;;;5113592;28;20027;-78
2021/08/18 05:19:56;;;;;;;;;;;16.80;99.90;;;;;;5113884;28;20024;-80
2021/08/18 05:22:22;;;;;;;8.88;2.90;;;16.90;99.90;;;;;;5113921;28;19966;-79
2021/08/18 05:24:48;;;;;;;13.63;3.53;;;16.80;99.90;;;;;;5116748;28;20020;-78
2021/08/18 05:27:14;;;;;;;;;;;16.70;99.90;;;;;;5117824;28;20027;-80
2021/08/18 05:29:40;;;;;;;9.43;2.97;;;16.70;99.90;;;;;;5117453;28;19903;-79
2021/08/18 05:32:06;;;;;;;;;;;16.70;99.90;;;;;;5117829;28;20019;-80
2021/08/18 05:34:31;;;;;;;10.18;2.80;;;16.90;99.90;;;;;;5117344;28;19910;-78
2021/08/18 05:36:57;;;;;;;;;;;17.00;99.90;;;;;;5117862;28;20024;-78
2021/08/18 05:39:23;;;;;;;8.85;2.75;;;17.20;99.90;;;;;;5117276;28;19903;-78
2021/08/18 05:41:49;;;;;;;;;;;17.30;99.90;;;;;;5117661;28;20018;-79
2021/08/18 05:44:14;;;;;;;11.45;3.30;;;17.20;99.90;;;;;;5098847;28;19908;-78
2021/08/18 05:46:40;;;;;;;;;;;17.20;99.90;;;;;;5098922;28;20515;-80
2021/08/18 05:49:06;;;;;;;10.50;4.53;;;17.30;99.90;;;;;;5117012;28;19951;-79
2021/08/18 05:51:31;;;;;;;;;;;17.30;99.90;;;;;;5117431;28;20020;-77
2021/08/18 05:53:57;;;;;;;10.13;3.05;;;17.30;99.90;;;;;;5116937;28;19910;-80
2021/08/18 05:56:23;;;;;;;;;;;17.50;99.90;;;;;;5117261;28;20031;-79
2021/08/18 05:58:48;;;;;;;12.02;3.33;;;17.50;99.90;;;;;;5117280;28;19911;-79
2021/08/18 06:01:14;;;;;;;;;;;17.30;99.90;;;;;;5117336;28;20031;-79
2021/08/18 06:03:40;;;;;;;12.35;3.63;;;17.30;99.90;;;;;;5116831;28;20279;-79
2021/08/18 06:06:05;;;;;;;;;;;16.70;99.90;;;;;;5117082;28;20038;-79
2021/08/18 06:08:31;;;;;;;13.50;3.83;;;16.40;99.90;;;;;;5117007;28;19904;-79
2021/08/18 06:10:56;;;;;;;;;;;16.30;99.90;;;;;;5098867;28;20027;-79
2021/08/18 06:13:23;;;;;;;12.15;3.30;;;16.30;99.90;;;;;;5098329;28;20431;-79
2021/08/18 06:15:49;;;;;;;10.38;3.30;;;16.80;99.90;;;;;;5116600;28;20103;-80
2021/08/18 06:18:15;;;;;;;10.68;3.22;;;16.80;99.90;;;;;;5116638;28;20484;-79
2021/08/18 06:20:41;;;;;;;;;;;16.60;99.90;;;;;;5116954;28;20024;-79
2021/08/18 06:23:07;;;;;;;14.23;3.25;;;17.00;99.90;;;;;;5116458;28;19910;-79
2021/08/18 06:25:32;;;;;;;;;;;17.20;99.90;;;;;;5116759;28;20027;-78
2021/08/18 06:27:58;;;;;;;11.18;3.40;;;17.40;99.90;;;;;;5116275;28;19907;-79
2021/08/18 06:30:24;;;;;;;;;;;17.40;99.90;;;;;;5116594;28;20015;-78
2021/08/18 06:32:50;;;;;;;13.02;3.33;;;17.20;99.90;;;;;;5116247;28;19904;-78
2021/08/18 06:35:15;;;;;;;;;;;16.80;99.90;;;;;;5116066;28;20388;-79
2021/08/18 06:37:41;;;;;;;9.77;3.40;;;16.60;99.90;;;;;;5116111;28;20289;-79
2021/08/18 06:40:08;;;;;;;;;;;16.50;99.90;;;;;;5116529;28;20027;-79
2021/08/18 06:42:33;;;;;;;10.65;3.22;;;16.60;99.90;;;;;;5116379;28;19948;-79
2021/08/18 06:44:59;;;;;;;;;;;16.50;99.90;;;;;;5116325;28;20094;-79
2021/08/18 06:47:25;;;;;;;8.95;3.00;;;16.60;99.90;;;;;;5115951;28;19920;-79
2021/08/18 06:49:50;;;;;;;;;;;17.00;99.90;;;;;;5097965;28;20031;-78
2021/08/18 06:52:16;;;;;;;9.88;3.03;;;17.20;99.90;;;;;;5115913;28;19903;-79
2021/08/18 06:54:42;;;;;;;;;;;16.90;99.90;;;;;;5097970;28;20484;-79
2021/08/18 06:57:07;;;;;;;9.98;3.15;;;16.90;99.90;;;;;;5097475;28;19990;-79
2021/08/18 06:59:33;;;;;;;;;;;17.10;99.90;;;;;;5097828;28;20027;-78
2021/08/18 07:01:59;;;;;;;13.40;3.58;;;17.40;99.90;;;;;;5097389;28;19947;-79
2021/08/18 07:04:25;;;;;;;;;;;16.90;99.90;;;;;;5116133;28;20523;-78
2021/08/18 07:06:51;;;;;;;12.98;3.92;;;16.70;99.90;;;;;;5115647;28;19907;-80
2021/08/18 07:09:16;;;;;;;13.80;3.38;;;17.10;99.90;;;;;;5115519;28;20457;-80
2021/08/18 07:11:42;;;;;;;16.65;4.10;;;17.50;99.90;;;;;;5115514;28;20065;-80
2021/08/18 07:14:07;;;;;;;;;;;17.00;99.90;;;;;;5115872;28;20016;-79
2021/08/18 07:16:34;;;;;;;13.48;3.40;;;17.40;99.90;;;;;;5115630;28;19904;-80
2021/08/18 07:19:00;;;;;;;8.93;3.20;;;17.40;99.90;;;;;;5115313;28;20019;-79
2021/08/18 07:21:27;;;;;;;8.55;3.10;;;17.60;99.90;;;;;;5115430;28;20038;-79
2021/08/18 07:23:55;;;;;;;13.02;3.17;;;17.60;99.90;;;;;;5115155;28;20020;-79
2021/08/18 07:26:24;;;;;;;11.15;3.20;;;17.60;99.90;;;;;;5115025;28;20034;-79
2021/08/18 07:28:50;;;;;;;11.70;3.35;;;17.80;99.90;;;;;;5115306;28;20536;-80
2021/08/18 07:31:16;;;;;;;9.63;3.08;;;17.80;99.90;;;;;;5115174;28;20103;-78
2021/08/18 07:33:42;;;;;;;10.60;3.03;;;17.80;99.90;;;;;;5115044;28;20145;-79
2021/08/18 07:36:08;;;;;;;12.88;3.05;;;18.00;99.90;;;;;;5115005;28;20024;-79
2021/08/18 07:38:34;;;;;;;9.57;3.25;;;17.70;99.90;;;;;;5115305;28;20027;-79
2021/08/18 07:41:00;;;;;;;11.18;3.10;;;17.50;99.90;;;;;;5114902;28;20065;-80
2021/08/18 07:43:25;;;;;;;11.25;3.20;;;17.40;99.90;;;;;;5114842;28;20051;-79
2021/08/18 07:45:51;;;;;;;;;;;17.20;99.90;;;;;;5115068;28;20036;-78
2021/08/18 07:48:17;;;;;;;10.55;3.40;;;17.90;99.90;;;;;;5095448;28;20434;-81
2021/08/18 07:50:43;;;;;;;9.50;2.75;;;18.30;99.90;;;;;;5114724;28;20027;-80
2021/08/18 07:53:08;;;;;;;12.07;2.97;;;18.60;99.90;;;;;;5096275;28;20024;-79
2021/08/18 07:55:34;;;;;;;12.35;3.15;;;18.50;99.90;;;;;;5114814;28;20024;-79
2021/08/18 07:58:00;;;;;;;18.48;3.33;;;17.50;99.90;;;;;;5114645;28;20531;-78
2021/08/18 08:00:26;;;;;;;;;;;17.60;99.90;;;;;;5115386;28;20117;-78
2021/08/18 08:02:51;;;;;;;10.50;4.00;;;17.50;99.90;;;;;;5114506;28;19951;-79
2021/08/18 08:05:18;;;;;;;12.02;3.60;;;17.50;99.90;;;;;;5114641;28;20106;-79
2021/08/18 08:07:45;;;;;;;10.50;2.90;;;17.60;99.90;;;;;;5114321;28;20021;-79
2021/08/18 08:10:12;;;;;;;13.57;3.30;;;18.10;99.90;;;;;;5114354;28;20023;-79
2021/08/18 08:12:38;;;;;;;10.57;3.45;;;18.10;99.90;;;;;;5114505;28;20026;-80
2021/08/18 08:15:06;;;;;;;10.35;3.50;;;18.10;99.90;;;;;;5114560;28;20028;-79
2021/08/18 08:17:32;;;;;;;14.40;3.38;;;18.10;99.90;;;;;;5095999;28;20492;-79
2021/08/18 08:19:58;;;;;;;11.68;3.10;;;18.10;99.90;;;;;;5114186;28;20115;-79
2021/08/18 08:22:24;;;;;;;9.43;3.08;;;18.40;99.90;;;;;;5114541;28;20019;-79
2021/08/18 08:24:50;;;;;;;9.98;2.70;;;18.70;99.90;;;;;;5114072;28;20395;-80
2021/08/18 08:27:23;;;;;;;8.43;2.53;;;19.30;99.90;;;;;;5114016;28;20027;-79
2021/08/18 08:29:50;;;;;;;9.75;2.80;;;19.50;99.90;;;;;;5114260;28;20031;-80
2021/08/18 08:32:16;;;;;;;8.10;2.60;;;19.50;99.90;;;;;;5113983;28;20020;-80
2021/08/18 08:34:42;;;;;;;11.07;3.20;;;19.50;99.90;;;;;;5114008;28;20387;-81
2021/08/18 08:37:07;;;;;;;10.32;3.10;;;19.30;99.90;;;;;;5114031;28;20028;-79
2021/08/18 08:39:33;;;;;;;8.18;2.83;;;18.90;99.90;;;;;;5113897;28;20468;-78
2021/08/18 08:42:02;;;;;;;10.50;3.30;;;19.00;99.90;;;;;;5113807;28;20031;-79
2021/08/18 08:44:29;;;;;;;8.30;2.95;;;18.70;99.90;;;;;;5114273;28;20020;-78
2021/08/18 08:46:55;;;;;;;11.63;3.08;;;18.90;99.90;;;;;;5113376;28;20050;-79
2021/08/18 08:49:24;;;;;;;13.07;3.40;;;19.00;99.90;;;;;;5113825;28;20031;-78
2021/08/18 08:51:52;;;;;;;10.02;3.70;;;18.60;99.90;;;;;;5113739;28;20019;-79
2021/08/18 08:54:19;;;;;;;11.98;2.88;;;18.90;99.90;;;;;;5113955;28;20070;-80
2021/08/18 08:56:45;;;;;;;12.32;3.13;;;19.30;99.90;;;;;;5095434;28;20020;-80
2021/08/18 08:59:11;;;;;;;10.95;3.28;;;19.60;99.90;;;;;;5113345;28;20437;-79
2021/08/18 09:01:57;;;;;;;11.63;3.22;;;19.40;99.90;;;;;;5113614;28;20087;-80
2021/08/18 09:04:33;;;;;;;;;;;18.50;99.90;;;;;;5095757;28;20036;-80
2021/08/18 09:07:12;;;;;;;9.00;3.40;;;18.40;99.90;;;;;;5113620;28;19908;-80
2021/08/18 09:09:41;;;;;;;9.63;2.92;;;18.50;99.90;;;;;;5113669;28;20098;-79
2021/08/18 09:12:15;;;;;;;11.23;3.28;;;19.00;99.90;;;;;;5113583;28;20024;-80
2021/08/18 09:14:41;;;;;;;10.90;3.20;;;18.80;99.90;;;;;;5113759;28;20020;-79
2021/08/18 09:17:27;;;;;;;11.75;3.55;;;19.00;99.90;;;;;;5113499;28;20023;-81
2021/08/18 09:20:00;;;;;;;11.57;3.40;;;19.20;99.90;;;;;;5113570;28;20106;-80
2021/08/18 09:22:26;;;;;;;10.52;3.28;;;18.80;99.90;;;;;;5113476;28;20107;-79
2021/08/18 09:25:08;;;;;;;11.20;3.10;;;19.60;99.90;;;;;;5095103;28;20116;-79
2021/08/18 09:27:35;;;;;;;12.35;3.15;;;19.70;99.90;;;;;;5113521;28;20035;-79
2021/08/18 09:30:00;;;;;;;8.93;3.20;;;19.50;99.90;;;;;;5095093;28;20026;-80
2021/08/18 09:32:36;;;;;;;12.02;3.45;;;19.60;99.90;;;;;;5113389;28;20011;-80
2021/08/18 09:35:11;;;;;;;10.32;3.30;;;19.70;99.90;;;;;;5095059;28;20434;-80
2021/08/18 09:37:43;;;;;;;12.00;3.60;;;20.20;99.90;;;;;;5113364;28;20023;-80
2021/08/18 09:40:22;;;;;;;10.38;3.45;;;20.20;99.90;;;;;;5113351;28;20031;-81
2021/08/18 09:42:49;;;;;;;14.65;3.50;;;19.70;99.90;;;;;;5113152;28;20034;-79
2021/08/18 09:45:20;;;;;;;11.32;3.33;;;20.20;99.90;;;;;;5113189;28;20028;-80
2021/08/18 09:48:07;;;;;;;11.68;3.55;;;19.80;99.90;;;;;;5113335;28;20063;-80
2021/08/18 09:50:46;;;;;;;8.38;2.80;;;19.30;99.90;;;;;;5094704;28;20047;-81
2021/08/18 09:53:24;;;;;;;9.15;2.90;;;19.90;99.90;;;;;;5113146;28;20559;-81
2021/08/18 09:55:59;;;;;;;10.75;3.83;;;19.90;99.90;;;;;;5113376;28;20023;-80
2021/08/18 09:58:26;;;;;;;;;;;20.30;99.90;;;;;;5095309;28;20495;-80
2021/08/18 10:00:54;;;;;;;10.43;3.13;;;20.60;99.90;;;;;;5113429;28;19904;-80
2021/08/18 10:03:20;;;;;;;10.63;3.20;;;19.90;99.90;;;;;;5113220;28;20024;-78
2021/08/18 10:05:48;;;;;;;9.45;3.58;;;19.60;99.90;;;;;;5113088;28;20015;-80
2021/08/18 10:08:15;;;;;;;10.93;3.30;;;19.40;99.90;;;;;;5113481;28;20544;-79
2021/08/18 10:10:42;;;;;;;12.05;3.95;;;19.60;99.90;;;;;;5096097;28;20027;-80
2021/08/18 10:13:09;;;;;;;11.38;3.88;;;19.60;99.90;;;;;;5098364;28;20020;-81
2021/08/18 10:15:36;;;;;;;11.30;3.30;;;20.00;99.90;;;;;;5116657;28;20031;-80
2021/08/18 10:18:04;;;;;;;13.05;3.50;;;20.30;99.90;;;;;;5116619;28;20061;-79
2021/08/18 10:20:30;;;;;;;12.90;3.95;;;19.80;99.90;;;;;;5098286;28;20164;-79
2021/08/18 10:23:07;;;;;;;11.77;3.20;;;19.80;99.90;;;;;;5116599;28;20051;-80
2021/08/18 10:25:38;;;;;;;9.73;3.30;;;20.00;99.90;;;;;;5116540;28;20502;-79
2021/08/18 10:28:08;;;;;;;10.68;3.45;;;20.10;99.90;;;;;;5097785;28;20020;-80
2021/08/18 10:30:52;;;;;;;11.52;3.30;;;19.80;99.90;;;;;;5116621;28;20034;-79
2021/08/18 10:33:53;;;;;;;10.77;3.10;;;20.30;99.90;;;;;;5116267;28;20011;-81
2021/08/18 10:36:56;;;;;;;11.32;3.20;;;20.20;99.90;;;;;;5116258;28;20106;-81
2021/08/18 10:39:21;;;;;;;10.32;3.42;;;20.20;99.90;;;;;;5013686;28;20059;-80
2021/08/18 10:42:01;;;;;;;12.02;3.90;;;20.40;99.90;;;;;;5096517;28;20035;-80
2021/08/18 10:44:36;;;;;;;11.43;3.70;;;19.90;99.90;;;;;;5116422;28;20442;-79
2021/08/18 10:47:25;;;;;;;11.88;3.60;;;20.00;99.90;;;;;;5115721;28;20469;-79
2021/08/18 10:49:57;;;;;;;11.95;3.97;;;20.10;99.90;;;;;;5116035;28;20476;-80
2021/08/18 10:52:28;;;;;;;10.75;3.40;;;19.70;99.90;;;;;;5116355;28;20020;-79
2021/08/18 10:55:09;;;;;;;11.15;4.13;;;19.70;99.90;;;;;;5115878;28;20468;-79
2021/08/18 10:57:44;;;;;;;13.05;3.70;;;19.50;99.90;;;;;;5115944;28;20037;-79
2021/08/18 11:00:22;;;;;;;10.77;3.80;;;19.60;99.90;;;;;;5097474;28;20487;-80
2021/08/18 11:02:48;;;;;;;9.75;3.90;;;19.40;99.90;;;;;;5115712;28;20032;-79
2021/08/18 11:05:15;;;;;;;10.98;3.58;;;19.30;99.90;;;;;;5115631;28;20476;-80
2021/08/18 11:08:03;;;;;;;14.93;3.55;;;19.50;99.90;;;;;;5115503;28;20019;-79
2021/08/18 11:10:31;;;;;;;10.05;3.60;;;19.70;99.90;;;;;;5115763;28;20514;-80
2021/08/18 11:13:01;;;;;;;11.13;3.25;;;20.70;99.90;;;;;;5115374;28;20035;-80
2021/08/18 11:15:27;;;;;;;10.25;3.47;;;20.40;99.90;;;;;;5096734;28;20146;-79
2021/08/18 11:17:56;;;;;;;10.85;3.28;;;19.80;99.90;;;;;;5115339;28;20052;-80
2021/08/18 11:20:27;;;;;;;9.48;3.33;;;19.60;99.90;;;;;;5115350;28;20020;-81
2021/08/18 11:23:01;;;;;;;7.90;3.10;;;19.40;99.90;;;;;;5096702;28;20402;-78
2021/08/18 11:25:28;;;;;;;9.13;3.30;;;20.00;99.90;;;;;;5115254;28;20506;-79
2021/08/18 11:27:56;;;;;;;10.98;3.58;;;19.90;99.90;;;;;;5115154;28;20027;-80
2021/08/18 11:30:30;;;;;;;9.20;3.63;;;19.90;99.90;;;;;;5115109;28;20016;-80
2021/08/18 11:33:16;;;;;;;14.27;3.72;;;20.00;99.90;;;;;;5115330;28;20015;-80
2021/08/18 11:35:42;;;;;;;10.63;4.15;;;19.70;99.90;;;;;;5114916;28;20027;-79
2021/08/18 11:38:09;;;;;;;13.85;3.80;;;19.60;99.90;;;;;;5096778;28;20031;-79
2021/08/18 11:40:36;;;;;;;10.25;3.92;;;19.20;99.90;;;;;;5114946;28;20600;-80
2021/08/18 11:43:02;;;;;;;10.48;4.18;;;19.50;99.90;;;;;;5114895;28;20107;-79
2021/08/18 11:45:28;;;;;;;11.73;3.80;;;19.80;99.90;;;;;;5114644;28;20056;-79
2021/08/18 11:48:05;;;;;;;10.38;4.25;;;20.00;99.90;;;;;;5114784;28;20028;-79
2021/08/18 11:50:31;;;;;;;12.65;3.85;;;19.50;99.90;;;;;;5114965;28;20042;-80
2021/08/18 11:53:01;;;;;;;13.30;4.20;;;20.00;99.90;;;;;;5096388;28;20444;-80
2021/08/18 11:55:29;;;;;;;12.73;3.70;;;19.70;99.90;;;;;;5114783;28;20099;-80
2021/08/18 11:58:04;;;;;;;12.45;3.95;;;20.20;99.90;;;;;;5114563;28;20027;-78
2021/08/18 12:00:34;;;;;;;10.95;3.67;;;20.00;99.90;;;;;;5114956;28;20491;-81
2021/08/18 12:03:00;;;;;;;11.60;4.20;;;19.80;99.90;;;;;;5096592;28;20408;-80
2021/08/18 12:05:31;;;;;;;12.65;4.60;;;20.70;99.90;;;;;;5114486;28;20028;-79
2021/08/18 12:08:08;;;;;;;12.48;4.00;;;20.30;99.90;;;;;;5114327;28;20464;-80
2021/08/18 12:10:42;;;;;;;9.93;3.90;;;21.00;99.90;;;;;;5114444;28;20019;-80
2021/08/18 12:13:15;;;;;;;10.32;4.10;;;21.10;99.90;;;;;;5114519;28;20107;-80
2021/08/18 12:15:45;;;;;;;10.70;4.00;;;20.50;99.90;;;;;;5095843;28;20391;-80
2021/08/18 12:18:26;;;;;;;12.63;3.75;;;20.50;99.90;;;;;;5096078;28;20036;-81
2021/08/18 12:20:52;;;;;;;11.02;4.10;;;20.00;99.90;;;;;;5114221;28;20017;-80
2021/08/18 12:23:25;;;;;;;13.05;3.65;;;19.60;99.90;;;;;;5114479;28;20047;-81
2021/08/18 12:25:52;;;;;;;10.88;3.70;;;21.00;99.90;;;;;;5114098;28;20029;-80
2021/08/18 12:28:20;;;;;;;10.40;3.50;;;21.00;99.90;;;;;;5114095;28;20027;-80
2021/08/18 12:31:02;;;;;;;13.48;3.70;;;21.50;99.90;;;;;;5095890;28;20023;-81
2021/08/18 12:33:29;;;;;;;12.20;3.75;;;22.00;99.90;;;;;;5113689;28;20068;-80
2021/08/18 12:36:08;;;;;;;8.15;3.30;;;21.60;99.90;;;;;;5113973;28;20039;-79
2021/08/18 12:38:34;;;;;;;9.95;3.42;;;21.40;99.90;;;;;;5114464;28;20034;-80
2021/08/18 12:41:09;;;;;;;9.35;3.60;;;20.80;99.90;;;;;;5114092;28;20043;-80
2021/08/18 12:43:35;;;;;;;10.53;3.57;;;21.10;99.90;;;;;;5095666;28;20088;-80
2021/08/18 12:46:01;;;;;;;10.65;3.78;;;21.30;99.90;;;;;;5113423;28;20118;-80
2021/08/18 12:48:29;;;;;;;10.40;3.50;;;21.20;99.90;;;;;;5113741;28;20180;-81
2021/08/18 12:50:57;;;;;;;11.02;3.75;;;22.30;99.90;;;;;;5095539;28;20106;-80
2021/08/18 12:53:22;;;;;;;9.38;3.17;;;22.70;99.30;;;;;;5113709;28;20088;-80
2021/08/18 12:55:50;;;;;;;10.80;3.15;;;22.80;98.60;;;;;;5113777;28;20054;-80
2021/08/18 12:58:23;;;;;;;9.82;3.53;;;22.70;99.40;;;;;;5113687;28;20044;-80
2021/08/18 13:00:50;;;;;;;8.63;3.30;;;21.70;99.90;;;;;;5113732;28;20112;-80
2021/08/18 13:03:16;;;;;;;10.80;3.00;;;21.80;99.90;;;;;;5113674;28;20510;-80